Time;durP1;ratioP1;P1;durP2;ratioP2;P2;SDS_P1;SDS_P2;PMS_P1;PMS_P2;Temp;Humidity;BMP_temperature;BMP_pressure;BME280_temperature;BME280_humidity;BME280_pressure;Samples;Min_cycle;Max_cycle;Signal;HPM_P1;HPM_P2
2020/12/27 00:00:43;;;;;;;3.78;0.10;;;10.50;88.80;;;;;;4996256;28;20433;-72
2020/12/27 00:03:08;;;;;;;5.18;0.30;;;10.50;89.10;;;;;;4996371;28;20129;-72
2020/12/27 00:05:34;;;;;;;3.88;0.20;;;10.40;88.90;;;;;;4996536;28;20038;-72
2020/12/27 00:08:00;;;;;;;3.97;0.10;;;10.50;89.00;;;;;;4996452;28;20092;-72
2020/12/27 00:10:26;;;;;;;1.20;0.10;;;10.50;88.90;;;;;;4996185;28;20042;-72
2020/12/27 00:12:52;;;;;;;2.40;0.03;;;10.50;88.80;;;;;;4995570;28;20050;-72
2020/12/27 00:15:18;;;;;;;5.78;0.20;;;10.60;88.90;;;;;;4996106;28;20586;-72
2020/12/27 00:17:45;;;;;;;1.80;0.10;;;10.40;88.80;;;;;;4996158;28;20038;-72
2020/12/27 00:20:11;;;;;;;7.72;0.10;;;10.40;88.90;;;;;;4995921;28;20073;-72
2020/12/27 00:22:37;;;;;;;5.72;0.20;;;10.40;89.10;;;;;;4995833;28;20034;-72
2020/12/27 00:25:03;;;;;;;7.00;0.40;;;10.40;89.20;;;;;;4995936;28;20058;-72
2020/12/27 00:27:29;;;;;;;6.18;0.43;;;10.50;89.30;;;;;;4995687;28;20042;-72
2020/12/27 00:29:55;;;;;;;4.53;0.28;;;10.40;89.20;;;;;;4995300;28;20128;-72
2020/12/27 00:32:21;;;;;;;3.47;0.20;;;10.60;89.20;;;;;;4995951;28;20034;-72
2020/12/27 00:34:47;;;;;;;6.65;0.30;;;10.60;89.20;;;;;;4995701;28;20050;-72
2020/12/27 00:37:12;;;;;;;5.25;0.40;;;10.60;89.10;;;;;;4995467;28;20124;-72
2020/12/27 00:39:38;;;;;;;5.07;0.30;;;10.50;89.00;;;;;;4995560;28;20141;-72
2020/12/27 00:42:04;;;;;;;6.63;0.43;;;10.50;89.10;;;;;;4995733;28;20397;-72
2020/12/27 00:44:30;;;;;;;7.53;0.43;;;10.50;89.10;;;;;;4995756;28;20046;-72
2020/12/27 00:46:56;;;;;;;5.53;0.38;;;10.70;89.30;;;;;;4995511;28;20034;-72
2020/12/27 00:49:22;;;;;;;6.80;0.43;;;10.80;89.30;;;;;;4995488;28;20050;-72
2020/12/27 00:51:49;;;;;;;8.63;0.40;;;10.70;89.10;;;;;;4995521;28;20394;-73
2020/12/27 00:54:15;;;;;;;8.02;0.70;;;10.60;89.10;;;;;;4994996;28;20089;-72
2020/12/27 00:56:41;;;;;;;8.73;0.60;;;10.60;89.10;;;;;;4995428;28;20086;-72
2020/12/27 00:59:07;;;;;;;6.22;0.35;;;10.60;89.00;;;;;;4994809;28;20410;-72
2020/12/27 01:01:33;;;;;;;9.07;0.68;;;10.80;89.00;;;;;;4995150;28;20037;-73
2020/12/27 01:03:59;;;;;;;8.38;0.75;;;10.70;88.80;;;;;;4994947;28;20046;-72
2020/12/27 01:06:26;;;;;;;8.13;0.43;;;10.60;88.80;;;;;;4995007;28;20117;-72
2020/12/27 01:08:53;;;;;;;6.80;0.68;;;10.60;88.90;;;;;;4995051;28;20100;-72
2020/12/27 01:11:19;;;;;;;9.95;0.73;;;10.80;89.10;;;;;;4994794;28;20070;-72
2020/12/27 01:13:45;;;;;;;10.15;0.80;;;10.70;88.90;;;;;;4994466;28;20560;-72
2020/12/27 01:16:12;;;;;;;12.82;0.60;;;10.70;88.90;;;;;;4994627;28;20038;-72
2020/12/27 01:18:44;;;;;;;12.80;1.20;;;10.80;88.80;;;;;;4995154;28;20430;-71
2020/12/27 01:21:09;;;;;;;10.00;0.88;;;10.70;88.80;;;;;;4995075;28;20076;-72
2020/12/27 01:23:35;;;;;;;15.68;1.33;;;10.70;88.80;;;;;;4994881;28;20711;-72
2020/12/27 01:26:01;;;;;;;9.05;0.80;;;10.70;89.30;;;;;;4994446;28;20042;-72
2020/12/27 01:28:27;;;;;;;10.13;0.70;;;10.60;88.70;;;;;;4994624;28;20398;-72
2020/12/27 01:30:53;;;;;;;11.35;0.70;;;10.80;88.70;;;;;;4994936;28;20129;-72
2020/12/27 01:33:18;;;;;;;8.15;0.82;;;10.80;88.80;;;;;;4994471;28;20062;-72
2020/12/27 01:35:45;;;;;;;6.68;0.50;;;10.80;88.80;;;;;;4995098;28;20038;-72
2020/12/27 01:38:12;;;;;;;6.65;0.45;;;10.70;88.70;;;;;;4994475;28;20061;-72
2020/12/27 01:40:39;;;;;;;7.55;0.50;;;10.90;88.80;;;;;;4994587;28;20046;-72
2020/12/27 01:43:04;;;;;;;9.13;0.70;;;10.90;88.60;;;;;;4994841;28;20045;-71
2020/12/27 01:45:30;;;;;;;5.35;0.47;;;10.80;88.50;;;;;;4994690;28;20121;-71
2020/12/27 01:47:57;;;;;;;10.18;0.90;;;11.10;88.60;;;;;;4994464;28;20508;-72
2020/12/27 01:50:24;;;;;;;10.18;0.95;;;11.00;88.30;;;;;;4994474;28;20052;-72
2020/12/27 01:52:50;;;;;;;12.32;0.93;;;10.80;88.20;;;;;;4994212;28;20105;-72
2020/12/27 01:55:16;;;;;;;9.40;0.88;;;10.80;88.30;;;;;;4994436;28;20046;-72
2020/12/27 01:58:10;;;;;;;9.52;1.00;;;11.00;88.40;;;;;;4994162;28;20045;-71
2020/12/27 02:00:35;;;;;;;10.20;1.08;;;10.80;88.30;;;;;;4994628;28;20043;-71
2020/12/27 02:03:05;;;;;;;12.18;1.13;;;10.80;88.30;;;;;;4994658;28;20044;-72
2020/12/27 02:05:31;;;;;;;13.55;0.93;;;10.90;88.30;;;;;;4994088;28;20120;-71
2020/12/27 02:07:57;;;;;;;10.75;1.00;;;11.10;88.50;;;;;;4994283;28;20478;-71
2020/12/27 02:10:23;;;;;;;9.80;1.15;;;10.80;88.30;;;;;;4994025;28;20049;-71
2020/12/27 02:12:49;;;;;;;11.05;1.05;;;11.10;88.60;;;;;;4994123;28;20129;-72
2020/12/27 02:15:15;;;;;;;11.10;1.50;;;10.90;88.50;;;;;;4994345;28;20121;-72
2020/12/27 02:17:41;;;;;;;10.05;0.80;;;11.20;88.70;;;;;;4994026;28;20038;-71
2020/12/27 02:20:07;;;;;;;12.07;0.80;;;11.10;88.50;;;;;;4994060;28;20125;-72
2020/12/27 02:22:33;;;;;;;8.15;0.60;;;11.00;88.40;;;;;;4994009;28;20460;-71
2020/12/27 02:24:58;;;;;;;12.60;0.73;;;11.10;88.30;;;;;;5009073;28;20107;-72
2020/12/27 02:27:24;;;;;;;9.70;0.88;;;11.10;88.30;;;;;;4993943;28;20402;-71
2020/12/27 02:29:50;;;;;;;10.23;0.80;;;11.10;88.30;;;;;;4994004;28;20050;-71
2020/12/27 02:32:16;;;;;;;7.88;0.82;;;11.10;88.40;;;;;;4994203;28;20034;-71
2020/12/27 02:34:41;;;;;;;8.15;0.90;;;11.00;88.20;;;;;;4993822;28;20055;-73
2020/12/27 02:37:07;;;;;;;11.30;1.00;;;11.20;88.10;;;;;;4994176;28;20043;-72
2020/12/27 02:39:33;;;;;;;10.48;0.90;;;11.30;88.10;;;;;;4994078;28;20056;-72
2020/12/27 02:41:59;;;;;;;10.70;0.70;;;11.20;87.90;;;;;;4993926;28;20039;-72
2020/12/27 02:44:25;;;;;;;16.40;1.20;;;11.10;87.70;;;;;;4994076;28;20147;-72
2020/12/27 02:46:50;;;;;;;12.30;0.75;;;11.00;87.50;;;;;;4994309;28;20045;-72
2020/12/27 02:49:16;;;;;;;9.43;0.70;;;11.00;87.30;;;;;;4994103;28;20039;-72
2020/12/27 02:51:42;;;;;;;7.30;0.75;;;11.20;87.30;;;;;;4994099;28;20133;-72
2020/12/27 02:54:08;;;;;;;10.90;0.88;;;11.20;87.30;;;;;;4993714;28;20050;-72
2020/12/27 02:56:33;;;;;;;9.70;0.90;;;11.20;87.20;;;;;;4993899;28;20470;-72
2020/12/27 02:59:02;;;;;;;8.23;1.00;;;11.30;87.20;;;;;;4993751;28;20375;-71
2020/12/27 03:01:28;;;;;;;9.57;0.90;;;11.30;87.00;;;;;;4993627;28;20054;-71
2020/12/27 03:03:54;;;;;;;10.88;0.93;;;11.40;86.90;;;;;;4994086;28;20077;-72
2020/12/27 03:06:20;;;;;;;10.05;1.05;;;11.30;86.90;;;;;;4993987;28;20077;-72
2020/12/27 03:08:54;;;;;;;10.52;1.00;;;11.20;86.70;;;;;;4993726;28;20068;-72
2020/12/27 03:11:21;;;;;;;12.50;1.00;;;11.40;86.80;;;;;;4994666;28;20156;-73
2020/12/27 03:13:47;;;;;;;10.07;1.13;;;11.40;86.90;;;;;;4993611;28;20145;-71
2020/12/27 03:16:13;;;;;;;11.75;1.00;;;11.40;86.90;;;;;;4993753;28;20085;-71
2020/12/27 03:18:38;;;;;;;14.25;1.10;;;11.20;87.00;;;;;;4995098;28;20070;-72
2020/12/27 03:21:04;;;;;;;12.15;1.40;;;11.30;87.10;;;;;;4997270;28;20061;-71
2020/12/27 03:23:30;;;;;;;11.55;1.42;;;11.20;87.00;;;;;;4997368;28;20532;-72
2020/12/27 03:25:56;;;;;;;10.25;1.20;;;11.30;87.20;;;;;;4997672;28;20378;-72
2020/12/27 03:28:22;;;;;;;16.15;1.80;;;11.30;87.10;;;;;;4997214;28;20084;-72
2020/12/27 03:30:47;;;;;;;9.75;1.15;;;11.30;87.10;;;;;;4996898;28;20090;-72
2020/12/27 03:33:13;;;;;;;17.77;1.90;;;11.40;87.20;;;;;;4996795;28;20042;-72
2020/12/27 03:35:39;;;;;;;14.75;1.80;;;11.40;87.20;;;;;;4996448;28;20080;-72
2020/12/27 03:38:05;;;;;;;14.85;1.80;;;11.40;87.10;;;;;;4997027;28;20038;-72
2020/12/27 03:40:31;;;;;;;12.52;1.60;;;11.20;86.90;;;;;;4996550;28;20112;-72
2020/12/27 03:42:57;;;;;;;16.80;1.92;;;11.40;86.80;;;;;;4996362;28;20030;-72
2020/12/27 03:45:22;;;;;;;10.90;1.77;;;11.30;86.70;;;;;;4996657;28;20053;-72
2020/12/27 03:47:48;;;;;;;20.48;1.92;;;11.30;86.50;;;;;;4996551;28;20044;-72
2020/12/27 03:50:14;;;;;;;14.70;1.38;;;11.50;86.50;;;;;;4996341;28;20053;-72
2020/12/27 03:52:40;;;;;;;14.57;1.60;;;11.40;86.60;;;;;;4996378;28;20088;-71
2020/12/27 03:55:05;;;;;;;13.30;1.85;;;11.40;86.70;;;;;;4996309;28;20046;-72
2020/12/27 03:57:31;;;;;;;14.00;1.48;;;11.50;86.60;;;;;;4996291;28;20380;-72
2020/12/27 03:59:57;;;;;;;15.25;1.77;;;11.60;86.40;;;;;;4996424;28;20038;-71
2020/12/27 04:02:23;;;;;;;13.82;2.00;;;11.50;86.40;;;;;;4996223;28;20067;-72
2020/12/27 04:04:49;;;;;;;11.23;1.52;;;11.50;86.40;;;;;;4996066;28;20042;-72
2020/12/27 04:07:14;;;;;;;13.52;1.60;;;11.60;86.40;;;;;;4996434;28;20038;-72
2020/12/27 04:09:40;;;;;;;13.80;1.75;;;11.60;86.30;;;;;;4996246;28;20042;-71
2020/12/27 04:12:06;;;;;;;16.33;1.35;;;11.60;86.30;;;;;;4996045;28;20498;-72
2020/12/27 04:14:32;;;;;;;16.67;2.05;;;11.70;86.30;;;;;;4995695;28;20088;-72
2020/12/27 04:16:57;;;;;;;21.67;1.75;;;11.60;86.20;;;;;;4996181;28;20042;-72
2020/12/27 04:19:23;;;;;;;14.45;1.63;;;11.80;86.20;;;;;;4995901;28;20072;-72
2020/12/27 04:21:49;;;;;;;12.63;1.33;;;11.60;86.00;;;;;;4995882;28;20088;-72
2020/12/27 04:24:16;;;;;;;13.43;1.60;;;11.60;86.00;;;;;;4995734;28;20046;-72
2020/12/27 04:26:41;;;;;;;12.90;1.75;;;11.50;85.80;;;;;;4995774;28;20038;-72
2020/12/27 04:29:07;;;;;;;16.92;1.85;;;11.40;85.70;;;;;;4994888;28;20038;-73
2020/12/27 04:31:33;;;;;;;14.02;1.60;;;11.60;85.80;;;;;;4995868;28;20494;-72
2020/12/27 04:33:59;;;;;;;13.05;1.80;;;11.50;85.70;;;;;;4995344;28;20406;-72
2020/12/27 04:36:25;;;;;;;13.95;1.50;;;11.50;85.60;;;;;;4995965;28;20121;-72
2020/12/27 04:38:51;;;;;;;14.55;1.95;;;11.50;85.50;;;;;;4995815;28;20185;-71
2020/12/27 04:41:19;;;;;;;10.93;1.33;;;11.60;85.70;;;;;;4995630;28;20038;-72
2020/12/27 04:43:48;;;;;;;16.40;1.67;;;11.50;85.70;;;;;;4995102;28;20043;-72
2020/12/27 04:46:16;;;;;;;16.52;1.75;;;11.70;85.70;;;;;;4995688;28;20101;-71
2020/12/27 04:48:44;;;;;;;15.63;1.83;;;11.80;85.80;;;;;;4995638;28;20077;-72
2020/12/27 04:51:10;;;;;;;16.08;1.85;;;11.90;85.70;;;;;;4995801;28;20033;-71
2020/12/27 04:53:38;;;;;;;19.65;2.33;;;11.70;85.70;;;;;;4995327;28;20093;-71
2020/12/27 04:56:06;;;;;;;16.50;1.65;;;11.70;85.60;;;;;;4995315;28;20042;-72
2020/12/27 04:58:32;;;;;;;16.23;2.28;;;11.70;85.80;;;;;;4995263;28;20042;-71
2020/12/27 05:01:00;;;;;;;19.60;2.30;;;11.70;86.00;;;;;;4995289;28;20041;-72
2020/12/27 05:03:27;;;;;;;18.77;2.20;;;11.60;86.00;;;;;;4994938;28;20046;-71
2020/12/27 05:05:54;;;;;;;21.45;2.20;;;11.50;86.10;;;;;;4995317;28;20124;-71
2020/12/27 05:08:21;;;;;;;19.80;2.30;;;11.30;86.20;;;;;;4994773;28;20069;-72
2020/12/27 05:10:47;;;;;;;19.13;2.25;;;11.40;86.50;;;;;;4994764;28;20141;-72
2020/12/27 05:13:15;;;;;;;25.27;2.65;;;11.50;86.60;;;;;;4994863;28;20046;-71
2020/12/27 05:15:44;;;;;;;19.77;2.78;;;11.40;86.80;;;;;;4994986;28;20528;-71
2020/12/27 05:18:11;;;;;;;22.40;2.67;;;11.50;87.00;;;;;;4995070;28;20520;-72
2020/12/27 05:20:41;;;;;;;22.60;2.88;;;11.60;87.20;;;;;;4994673;28;20042;-72
2020/12/27 05:23:07;;;;;;;27.48;3.65;;;11.40;87.30;;;;;;4995039;28;20640;-72
2020/12/27 05:25:40;;;;;;;27.85;2.70;;;11.30;87.50;;;;;;4994946;28;20113;-72
2020/12/27 05:28:11;;;;;;;19.77;2.65;;;11.40;87.60;;;;;;4994381;28;20049;-71
2020/12/27 05:30:42;;;;;;;27.17;3.00;;;11.40;87.70;;;;;;4994274;28;20521;-72
2020/12/27 05:33:15;;;;;;;25.00;3.08;;;11.50;87.80;;;;;;4994431;28;20553;-72
2020/12/27 05:35:42;;;;;;;24.67;3.28;;;11.50;88.00;;;;;;4994768;28;20050;-72
2020/12/27 05:38:10;;;;;;;25.80;3.45;;;11.40;88.00;;;;;;4994648;28;20045;-72
2020/12/27 05:40:37;;;;;;;23.58;2.92;;;11.60;88.20;;;;;;4993905;28;20042;-71
2020/12/27 05:43:14;;;;;;;22.17;2.88;;;11.40;88.20;;;;;;4993982;28;20050;-72
2020/12/27 05:45:41;;;;;;;28.58;3.20;;;11.30;88.30;;;;;;4994419;28;20070;-72
2020/12/27 05:48:07;;;;;;;23.77;2.65;;;11.30;88.30;;;;;;4994512;28;20042;-72
2020/12/27 05:50:42;;;;;;;14.65;2.60;;;11.40;88.50;;;;;;4994474;28;20042;-72
2020/12/27 05:53:23;;;;;;;17.73;2.47;;;11.30;88.70;;;;;;4994494;28;20046;-72
2020/12/27 05:55:51;;;;;;;19.02;2.65;;;11.40;89.00;;;;;;4994110;28;20498;-72
2020/12/27 05:58:20;;;;;;;18.70;2.50;;;11.50;89.10;;;;;;4994010;28;20054;-72
2020/12/27 06:00:53;;;;;;;26.95;2.97;;;11.40;89.20;;;;;;4994179;28;20065;-72
2020/12/27 06:03:20;;;;;;;23.38;3.30;;;11.50;89.30;;;;;;4994354;28;20034;-72
2020/12/27 06:05:58;;;;;;;26.88;3.03;;;11.40;89.40;;;;;;4993808;28;20034;-72
2020/12/27 06:08:30;;;;;;;19.90;2.55;;;11.30;89.50;;;;;;4994235;28;20045;-71
2020/12/27 06:11:06;;;;;;;21.80;2.40;;;11.30;89.70;;;;;;4993952;28;20064;-72
2020/12/27 06:14:00;;;;;;;21.08;2.60;;;11.30;89.80;;;;;;4993851;28;20057;-72
2020/12/27 06:16:40;;;;;;;25.90;2.95;;;11.30;89.90;;;;;;4994066;28;20100;-72
2020/12/27 06:19:38;;;;;;;22.67;2.70;;;11.40;90.00;;;;;;4996241;28;20073;-71
2020/12/27 06:22:09;;;;;;;25.63;2.60;;;11.40;90.00;;;;;;5013583;28;20076;-72
2020/12/27 06:24:36;;;;;;;20.95;2.65;;;11.50;90.00;;;;;;5013210;28;20038;-71
2020/12/27 06:27:05;;;;;;;20.20;2.92;;;11.40;89.90;;;;;;5013583;28;20103;-72
2020/12/27 06:29:35;;;;;;;27.40;3.38;;;11.60;90.10;;;;;;5013399;28;20057;-72
2020/12/27 06:32:04;;;;;;;27.23;3.47;;;11.50;90.10;;;;;;5013829;28;20062;-71
2020/12/27 06:34:30;;;;;;;23.30;2.75;;;11.60;90.10;;;;;;5013072;28;20133;-72
2020/12/27 06:37:00;;;;;;;24.17;3.30;;;11.50;90.10;;;;;;5012698;28;20034;-71
2020/12/27 06:39:30;;;;;;;27.25;2.85;;;11.40;90.10;;;;;;5013188;28;20489;-72
2020/12/27 06:42:18;;;;;;;26.17;3.25;;;11.60;90.20;;;;;;5012875;28;20030;-72
2020/12/27 06:44:45;;;;;;;25.10;2.92;;;11.50;90.10;;;;;;5013216;28;20120;-73
2020/12/27 06:47:12;;;;;;;21.30;3.15;;;11.40;90.10;;;;;;5013552;28;20036;-72
2020/12/27 06:49:38;;;;;;;25.88;2.67;;;11.60;90.20;;;;;;5013520;28;20045;-72
2020/12/27 06:52:24;;;;;;;23.73;2.83;;;11.50;90.30;;;;;;5013485;28;20045;-71
2020/12/27 06:54:49;;;;;;;;;;;11.60;90.30;;;;;;5017437;28;20046;-72
2020/12/27 06:57:43;;;;;;;28.13;3.58;;;11.50;90.30;;;;;;5016735;28;19920;-73
2020/12/27 07:00:25;;;;;;;25.30;3.17;;;11.40;90.20;;;;;;5017161;28;20508;-73
2020/12/27 07:03:09;;;;;;;23.48;3.47;;;11.50;90.20;;;;;;5016114;28;20065;-72
2020/12/27 07:05:37;;;;;;;30.75;3.95;;;11.50;90.30;;;;;;5017058;28;20041;-72
2020/12/27 07:08:11;;;;;;;27.55;3.50;;;11.40;90.30;;;;;;5016913;28;20088;-72
2020/12/27 07:10:46;;;;;;;26.92;3.55;;;11.60;90.40;;;;;;5016001;28;20149;-72
2020/12/27 07:13:12;;;;;;;;;;;11.70;90.40;;;;;;5016911;28;20049;-73
2020/12/27 07:16:00;;;;;;;23.35;3.42;;;11.40;90.30;;;;;;5018572;28;20348;-73
2020/12/27 07:18:27;;;;;;;20.23;2.95;;;11.40;90.30;;;;;;5024769;28;20041;-73
2020/12/27 07:20:58;;;;;;;27.38;3.40;;;11.50;90.40;;;;;;5036271;28;20046;-72
2020/12/27 07:23:30;;;;;;;25.63;3.78;;;11.40;90.40;;;;;;5036523;28;20046;-72
2020/12/27 07:25:58;;;;;;;23.35;3.10;;;11.40;90.50;;;;;;5036157;28;20519;-71
2020/12/27 07:28:25;;;;;;;22.15;3.13;;;11.70;90.50;;;;;;5035976;28;20131;-72
2020/12/27 07:31:01;;;;;;;27.42;4.10;;;11.50;90.50;;;;;;5026510;28;20472;-72
2020/12/27 07:33:36;;;;;;;26.77;3.35;;;11.50;90.50;;;;;;5016871;28;20042;-72
2020/12/27 07:36:05;;;;;;;24.00;3.00;;;11.40;90.40;;;;;;5015998;28;20549;-73
2020/12/27 07:38:40;;;;;;;19.40;3.17;;;11.70;90.60;;;;;;5024355;28;20064;-72
2020/12/27 07:41:06;;;;;;;23.15;3.38;;;11.40;90.60;;;;;;5015517;28;20050;-72
2020/12/27 07:43:32;;;;;;;19.45;3.10;;;11.40;90.60;;;;;;5016285;28;20038;-73
2020/12/27 07:46:08;;;;;;;23.83;3.28;;;11.60;90.60;;;;;;5016387;28;20053;-73
2020/12/27 07:48:43;;;;;;;24.08;2.95;;;11.60;90.70;;;;;;5016275;28;20543;-72
2020/12/27 07:51:13;;;;;;;22.92;3.03;;;11.60;90.60;;;;;;5016616;28;20500;-72
2020/12/27 07:53:53;;;;;;;31.40;3.65;;;11.60;90.70;;;;;;5016030;28;20044;-73
2020/12/27 07:56:24;;;;;;;19.83;3.38;;;11.50;90.70;;;;;;5016565;28;20056;-72
2020/12/27 07:58:54;;;;;;;26.25;3.22;;;11.60;90.60;;;;;;5015906;28;20045;-73
2020/12/27 08:01:26;;;;;;;24.77;3.17;;;11.50;90.60;;;;;;5016458;28;20038;-72
2020/12/27 08:04:10;;;;;;;26.15;3.58;;;11.60;90.60;;;;;;5015447;28;20103;-72
2020/12/27 08:06:42;;;;;;;29.33;3.50;;;11.60;90.70;;;;;;5015820;28;20045;-73
2020/12/27 08:09:12;;;;;;;24.58;3.63;;;11.70;90.70;;;;;;5015622;28;20038;-73
2020/12/27 08:11:41;;;;;;;32.42;3.53;;;11.60;90.70;;;;;;5015707;28;20069;-73
2020/12/27 08:14:08;;;;;;;26.70;3.92;;;11.50;90.70;;;;;;5015093;28;20042;-73
2020/12/27 08:16:38;;;;;;;25.63;3.55;;;11.50;90.70;;;;;;5015155;28;20133;-72
2020/12/27 08:19:10;;;;;;;31.73;4.25;;;11.60;90.70;;;;;;5015355;28;20100;-73
2020/12/27 08:21:38;;;;;;;28.17;3.40;;;11.60;90.80;;;;;;5015564;28;20500;-73
2020/12/27 08:24:07;;;;;;;28.55;3.80;;;11.60;90.80;;;;;;5014916;28;20046;-73
2020/12/27 08:26:35;;;;;;;27.98;3.83;;;11.60;90.90;;;;;;5015305;28;20041;-72
2020/12/27 08:29:23;;;;;;;24.60;3.67;;;11.60;91.00;;;;;;5015171;28;20117;-73
2020/12/27 08:31:51;;;;;;;31.35;3.85;;;11.50;91.00;;;;;;5015278;28;20045;-72
2020/12/27 08:34:23;;;;;;;22.65;3.10;;;11.60;91.00;;;;;;5015074;28;20235;-72
2020/12/27 08:36:57;;;;;;;27.58;3.13;;;11.50;91.00;;;;;;5015425;28;20068;-72
2020/12/27 08:39:55;;;;;;;23.02;2.92;;;11.70;91.10;;;;;;5015020;28;20089;-72
2020/12/27 08:42:38;;;;;;;24.30;3.55;;;11.60;91.00;;;;;;5010324;28;20486;-73
2020/12/27 08:45:08;;;;;;;28.08;3.50;;;11.60;91.10;;;;;;5015000;28;20260;-72
2020/12/27 08:47:45;;;;;;;25.70;3.05;;;11.50;91.10;;;;;;5015064;28;20111;-73
2020/12/27 08:50:16;;;;;;;27.08;3.40;;;11.50;91.10;;;;;;5015121;28;20080;-73
2020/12/27 08:52:48;;;;;;;28.52;3.42;;;11.60;91.20;;;;;;5014677;28;20049;-72
2020/12/27 08:55:15;;;;;;;26.65;3.45;;;11.50;91.20;;;;;;5014867;28;20046;-72
2020/12/27 08:57:44;;;;;;;25.80;2.97;;;11.60;91.20;;;;;;5014566;28;20448;-72
2020/12/27 09:00:11;;;;;;;30.25;3.90;;;11.50;91.10;;;;;;5014804;28;20057;-72
2020/12/27 09:02:39;;;;;;;23.77;2.70;;;11.60;91.10;;;;;;5014779;28;20040;-73
2020/12/27 09:05:12;;;;;;;30.08;3.60;;;11.60;91.10;;;;;;5014719;28;20068;-72
2020/12/27 09:07:45;;;;;;;26.40;3.50;;;11.60;91.20;;;;;;5014216;28;20502;-72
2020/12/27 09:10:20;;;;;;;27.67;3.40;;;11.60;91.50;;;;;;5014188;28;20041;-72
2020/12/27 09:13:04;;;;;;;27.65;3.50;;;11.60;91.30;;;;;;5013852;28;20038;-71
2020/12/27 09:15:32;;;;;;;28.90;4.10;;;11.60;91.30;;;;;;5014045;28;20158;-72
2020/12/27 09:17:58;;;;;;;29.48;4.22;;;11.60;91.30;;;;;;5013988;28;20088;-72
2020/12/27 09:20:24;;;;;;;28.60;3.78;;;11.60;91.20;;;;;;5014535;28;20042;-72
2020/12/27 09:22:51;;;;;;;29.38;4.03;;;11.60;91.20;;;;;;5014058;28;20524;-72
2020/12/27 09:25:19;;;;;;;24.95;3.75;;;11.60;91.20;;;;;;5013702;28;20048;-72
2020/12/27 09:27:46;;;;;;;25.30;3.67;;;11.40;91.20;;;;;;5013694;28;20037;-72
2020/12/27 09:30:24;;;;;;;22.52;3.35;;;11.70;91.30;;;;;;5011130;28;20050;-72
2020/12/27 09:32:50;;;;;;;20.92;3.10;;;11.60;91.30;;;;;;5009030;28;20044;-72
2020/12/27 09:35:23;;;;;;;28.17;3.35;;;11.70;91.30;;;;;;5013458;28;20139;-73
2020/12/27 09:37:50;;;;;;;22.50;2.88;;;11.80;91.40;;;;;;5014387;28;20045;-71
2020/12/27 09:40:17;;;;;;;25.05;3.03;;;11.80;91.40;;;;;;5013672;28;20038;-71
2020/12/27 09:42:44;;;;;;;25.80;3.20;;;11.80;91.50;;;;;;5013511;28;20037;-71
2020/12/27 09:45:28;;;;;;;26.60;2.88;;;11.70;91.40;;;;;;5013423;28;20041;-72
2020/12/27 09:47:59;;;;;;;27.40;3.65;;;11.90;91.50;;;;;;5013882;28;20137;-71
2020/12/27 09:50:34;;;;;;;28.92;3.78;;;11.80;91.50;;;;;;5013825;28;20250;-71
2020/12/27 09:53:01;;;;;;;24.40;2.85;;;11.80;91.50;;;;;;5013234;28;20030;-72
2020/12/27 09:55:28;;;;;;;22.90;3.33;;;12.00;91.50;;;;;;5013840;28;20104;-73
2020/12/27 09:57:54;;;;;;;28.35;3.58;;;12.00;91.40;;;;;;5013954;28;20044;-72
2020/12/27 10:00:20;;;;;;;24.48;3.35;;;11.90;91.40;;;;;;5013916;28;20077;-74
2020/12/27 10:02:46;;;;;;;23.83;2.85;;;12.10;91.50;;;;;;5014157;28;20065;-73
2020/12/27 10:05:12;;;;;;;25.13;3.30;;;12.00;91.50;;;;;;5014115;28;20048;-73
2020/12/27 10:07:39;;;;;;;24.60;2.90;;;12.10;91.50;;;;;;5013811;28;20069;-74
2020/12/27 10:10:07;;;;;;;17.42;2.75;;;12.20;91.50;;;;;;5013686;28;20051;-74
2020/12/27 10:12:33;;;;;;;23.73;3.30;;;12.00;91.40;;;;;;5013414;28;20121;-73
2020/12/27 10:14:59;;;;;;;28.45;3.42;;;12.10;91.50;;;;;;5012431;28;20490;-73
2020/12/27 10:17:24;;;;;;;22.65;2.80;;;12.10;91.50;;;;;;5013019;28;20045;-74
2020/12/27 10:19:50;;;;;;;20.80;3.08;;;12.10;91.50;;;;;;5013823;28;20501;-74
2020/12/27 10:22:17;;;;;;;23.70;3.40;;;12.20;91.50;;;;;;5013812;28;20490;-73
2020/12/27 10:24:43;;;;;;;23.48;3.40;;;12.10;91.50;;;;;;5013039;28;20123;-73
2020/12/27 10:27:09;;;;;;;23.92;3.38;;;12.20;91.50;;;;;;5012891;28;20060;-74
2020/12/27 10:29:35;;;;;;;29.98;3.13;;;12.10;91.50;;;;;;5013394;28;20053;-75
2020/12/27 10:32:05;;;;;;;26.13;3.92;;;12.10;91.60;;;;;;5013690;28;20037;-75
2020/12/27 10:34:32;;;;;;;22.95;3.92;;;12.10;91.60;;;;;;5012043;28;20041;-74
2020/12/27 10:37:00;;;;;;;25.65;3.53;;;12.00;91.60;;;;;;5013624;28;20041;-73
2020/12/27 10:39:26;;;;;;;29.27;3.75;;;12.30;91.70;;;;;;5012859;28;20400;-76
2020/12/27 10:41:54;;;;;;;23.40;3.72;;;12.10;91.50;;;;;;5013383;28;20042;-77
2020/12/27 10:44:23;;;;;;;17.65;2.60;;;12.10;91.50;;;;;;5013553;28;20057;-77
2020/12/27 10:46:50;;;;;;;13.38;2.17;;;12.20;91.50;;;;;;5013295;28;20042;-77
2020/12/27 10:49:17;;;;;;;12.15;1.80;;;12.20;91.40;;;;;;5013481;28;20034;-79
2020/12/27 10:51:43;;;;;;;10.88;1.27;;;12.30;91.40;;;;;;5012578;28;20034;-78
2020/12/27 10:54:11;;;;;;;4.95;0.77;;;12.20;91.30;;;;;;5013127;28;20073;-77
2020/12/27 10:56:44;;;;;;;4.22;0.63;;;12.30;91.20;;;;;;5012779;28;20046;-78
2020/12/27 10:59:11;;;;;;;2.28;0.40;;;12.10;91.00;;;;;;5012826;28;20099;-78
2020/12/27 11:01:43;;;;;;;3.22;0.28;;;12.10;91.00;;;;;;5012968;28;20042;-77
2020/12/27 11:04:09;;;;;;;6.40;3.67;;;12.00;90.90;;;;;;5012764;28;20049;-77
2020/12/27 11:06:34;;;;;;;3.95;0.70;;;12.10;90.90;;;;;;5012345;28;20038;-80
2020/12/27 11:09:00;;;;;;;5.28;2.20;;;12.10;90.80;;;;;;5011873;28;20064;-78
2020/12/27 11:11:26;;;;;;;4.13;1.40;;;11.90;90.70;;;;;;5012966;28;20041;-79
2020/12/27 11:13:52;;;;;;;5.18;1.98;;;12.10;90.70;;;;;;5012600;28;20052;-78
2020/12/27 11:16:18;;;;;;;3.30;1.00;;;12.00;90.60;;;;;;5012777;28;20045;-79
2020/12/27 11:18:45;;;;;;;3.35;0.75;;;12.00;90.60;;;;;;5009479;28;20088;-79
2020/12/27 11:21:11;;;;;;;2.80;0.95;;;12.00;90.50;;;;;;5003014;28;20359;-78
2020/12/27 11:23:36;;;;;;;5.70;0.80;;;12.00;90.50;;;;;;5007834;28;20124;-78
2020/12/27 11:26:02;;;;;;;5.07;0.90;;;11.80;90.50;;;;;;5009200;28;20034;-78
2020/12/27 11:28:28;;;;;;;5.28;0.43;;;11.90;90.50;;;;;;5010779;28;20045;-79
2020/12/27 11:30:54;;;;;;;7.97;0.82;;;12.00;90.50;;;;;;5002761;28;20062;-78
2020/12/27 11:33:20;;;;;;;7.47;1.25;;;12.10;90.40;;;;;;4992455;28;20118;-78
2020/12/27 11:35:46;;;;;;;8.02;1.90;;;11.90;90.30;;;;;;4993332;28;20601;-78
2020/12/27 11:38:12;;;;;;;6.85;1.80;;;11.90;90.20;;;;;;4992727;28;20050;-79
2020/12/27 11:40:37;;;;;;;5.70;1.00;;;11.80;90.10;;;;;;4995949;28;20045;-79
2020/12/27 11:43:03;;;;;;;7.40;2.60;;;11.80;90.30;;;;;;4996276;28;20038;-78
2020/12/27 11:45:29;;;;;;;5.93;0.82;;;11.90;90.10;;;;;;5011720;28;20086;-79
2020/12/27 11:47:55;;;;;;;9.45;0.77;;;11.80;90.20;;;;;;4996717;28;20073;-78
2020/12/27 11:50:20;;;;;;;8.73;1.48;;;11.80;90.20;;;;;;4995706;28;20070;-78
2020/12/27 11:52:46;;;;;;;7.72;2.08;;;11.90;90.20;;;;;;4996448;28;20493;-78
2020/12/27 11:55:12;;;;;;;5.78;0.95;;;11.90;90.10;;;;;;4996239;28;20050;-79
2020/12/27 11:57:38;;;;;;;6.97;0.63;;;11.90;90.10;;;;;;5011273;28;20092;-79
2020/12/27 12:00:05;;;;;;;6.43;0.68;;;11.80;90.10;;;;;;5015506;28;20129;-79
2020/12/27 12:02:31;;;;;;;6.30;0.90;;;12.00;90.00;;;;;;5015446;28;20033;-79
2020/12/27 12:04:56;;;;;;;7.78;0.77;;;12.00;90.00;;;;;;5015522;28;20443;-78
2020/12/27 12:07:23;;;;;;;8.50;0.60;;;12.00;90.00;;;;;;5015341;28;20038;-79
2020/12/27 12:09:49;;;;;;;8.07;1.10;;;12.20;90.00;;;;;;5016078;28;20091;-79
2020/12/27 12:12:15;;;;;;;5.38;1.52;;;12.10;90.00;;;;;;5015572;28;20041;-79
2020/12/27 12:14:41;;;;;;;9.15;1.50;;;12.20;89.90;;;;;;5015378;28;20053;-80
2020/12/27 12:17:07;;;;;;;6.40;0.55;;;12.30;89.80;;;;;;5015417;28;20091;-79
2020/12/27 12:19:33;;;;;;;6.63;1.98;;;12.10;89.50;;;;;;5015380;28;20050;-78
2020/12/27 12:21:59;;;;;;;8.35;1.77;;;12.20;89.70;;;;;;5014346;28;20034;-79
2020/12/27 12:24:25;;;;;;;6.38;0.52;;;12.30;89.60;;;;;;5015618;28;20049;-81
2020/12/27 12:26:51;;;;;;;38.63;13.73;;;12.20;89.40;;;;;;5015497;28;20060;-79
2020/12/27 12:29:17;;;;;;;15.90;4.18;;;12.20;89.30;;;;;;5011579;28;20509;-79
2020/12/27 12:31:43;;;;;;;13.27;4.50;;;12.20;89.30;;;;;;5014816;28;20037;-79
2020/12/27 12:34:10;;;;;;;11.77;3.00;;;12.10;89.10;;;;;;5015140;28;20123;-81
2020/12/27 12:36:36;;;;;;;4.72;0.70;;;12.30;89.20;;;;;;5013825;28;20077;-80
2020/12/27 12:39:03;;;;;;;5.82;0.30;;;12.30;89.40;;;;;;5029728;28;20034;-78
2020/12/27 12:41:32;;;;;;;4.72;0.40;;;12.40;88.80;;;;;;5015233;28;20042;-78
2020/12/27 12:43:59;;;;;;;7.40;0.50;;;12.20;88.60;;;;;;5030109;28;20045;-79
2020/12/27 12:46:26;;;;;;;7.07;1.00;;;12.30;88.60;;;;;;5014855;28;20042;-80